createdAt,value
2018-06-02T00:07:34.761Z,55.01
2018-06-02T00:10:02.304Z,55.17
2018-06-02T00:12:29.831Z,55.07
2018-06-02T00:14:57.367Z,54.99
2018-06-02T00:17:24.929Z,55.10
2018-06-02T00:19:52.472Z,55.71
2018-06-02T00:22:19.967Z,56.15
2018-06-02T00:24:47.468Z,56.92
2018-06-02T00:27:14.998Z,57.71
2018-06-02T00:29:42.560Z,58.01
2018-06-02T00:32:10.167Z,57.99
2018-06-02T00:34:37.683Z,58.63
2018-06-02T00:37:05.201Z,58.93
2018-06-02T00:39:32.707Z,59.15
2018-06-02T00:42:00.218Z,59.51
2018-06-02T00:44:27.720Z,59.98
2018-06-02T00:46:55.265Z,60.07
2018-06-02T00:49:22.796Z,60.26
2018-06-02T00:51:50.344Z,59.97
2018-06-02T00:57:12.979Z,60.73
2018-06-02T00:59:40.490Z,60.78
2018-06-02T01:02:08.013Z,60.54
2018-06-02T01:04:35.527Z,60.49
2018-06-02T01:07:03.055Z,60.70
2018-06-02T01:09:30.559Z,60.65
2018-06-02T01:11:58.071Z,60.93
2018-06-02T01:14:25.577Z,61.31
2018-06-02T01:16:53.067Z,61.57
2018-06-02T01:19:20.567Z,61.78
2018-06-02T01:26:23.700Z,62.29
2018-06-02T01:28:51.198Z,62.39
2018-06-02T01:31:18.707Z,62.44
2018-06-02T01:33:46.242Z,62.59
2018-06-02T01:36:13.723Z,62.87
2018-06-02T01:38:41.224Z,62.88
2018-06-02T01:41:08.744Z,63.02
2018-06-02T01:43:36.251Z,63.08
2018-06-02T01:46:03.772Z,63.13
2018-06-02T01:48:31.294Z,62.99
2018-06-02T01:50:58.855Z,63.01
2018-06-02T01:53:26.354Z,62.84
2018-06-02T01:55:53.860Z,62.41
2018-06-02T01:58:21.370Z,62.09
2018-06-02T02:00:48.912Z,62.21
2018-06-02T02:03:16.417Z,61.82
2018-06-02T02:05:43.932Z,61.59
2018-06-02T02:08:11.434Z,61.63
2018-06-02T02:10:38.931Z,61.45
2018-06-02T02:13:06.443Z,60.85
2018-06-02T02:15:33.947Z,61.10
2018-06-02T02:18:01.456Z,60.78
2018-06-02T02:20:28.951Z,60.52
2018-06-02T02:22:56.488Z,60.19
2018-06-02T02:25:24.000Z,59.52
2018-06-02T02:27:51.544Z,59.25
2018-06-02T02:30:19.050Z,59.54
2018-06-02T02:32:46.596Z,59.46
2018-06-02T02:35:14.099Z,59.37
2018-06-02T02:37:41.605Z,59.47
2018-06-02T02:40:09.098Z,59.60
2018-06-02T02:42:36.616Z,59.62
2018-06-02T02:45:04.131Z,59.65
2018-06-02T02:47:31.651Z,59.80
2018-06-02T02:49:59.147Z,59.90
2018-06-02T02:52:26.656Z,60.28
2018-06-02T02:54:54.156Z,60.53
2018-06-02T02:57:21.667Z,60.53
2018-06-02T02:59:49.176Z,60.65
2018-06-02T03:02:16.670Z,60.57
2018-06-02T03:04:44.168Z,60.35
2018-06-02T03:07:11.683Z,60.46
2018-06-02T03:09:39.195Z,60.52
2018-06-02T03:12:06.717Z,60.50
2018-06-02T03:14:34.222Z,60.41
2018-06-02T03:17:01.738Z,60.61
2018-06-02T03:19:29.243Z,60.06
2018-06-02T03:21:56.745Z,59.88
2018-06-02T03:24:24.251Z,59.84
2018-06-02T03:26:51.760Z,59.79
2018-06-02T03:29:19.300Z,59.51
2018-06-02T03:31:46.791Z,59.31
2018-06-02T03:34:14.337Z,59.21
2018-06-02T03:36:41.838Z,59.09
2018-06-02T03:39:09.335Z,59.17
2018-06-02T03:41:36.825Z,58.89
2018-06-02T03:44:04.333Z,59.00
2018-06-02T03:46:31.853Z,59.20
2018-06-02T03:48:59.351Z,58.60
2018-06-02T03:51:26.895Z,59.22
2018-06-02T03:53:54.407Z,58.56
2018-06-02T03:56:21.943Z,58.88
2018-06-02T03:58:49.446Z,58.73
2018-06-02T04:01:16.944Z,58.27
2018-06-02T04:03:44.504Z,58.26
2018-06-02T04:06:11.998Z,57.55
2018-06-02T04:08:39.522Z,57.77
2018-06-02T04:11:07.034Z,57.99
2018-06-02T04:13:35.449Z,57.73
2018-06-02T04:16:02.959Z,57.28
2018-06-02T04:18:30.472Z,56.99
2018-06-02T04:20:57.971Z,56.78
2018-06-02T04:23:25.507Z,56.69
2018-06-02T04:25:53.025Z,56.29
2018-06-02T04:28:20.521Z,57.06
2018-06-02T04:30:48.022Z,56.72
2018-06-02T04:33:15.576Z,56.34
2018-06-02T04:35:43.112Z,56.27
2018-06-02T04:38:10.685Z,56.32
2018-06-02T04:40:38.249Z,56.09
2018-06-02T04:43:05.743Z,55.51
2018-06-02T04:45:33.260Z,55.77
2018-06-02T04:48:00.766Z,56.24
2018-06-02T04:50:28.278Z,55.24
2018-06-02T04:52:55.778Z,55.01
2018-06-02T04:55:23.291Z,56.90
2018-06-02T04:57:50.788Z,55.42
2018-06-02T05:00:18.288Z,55.28
2018-06-02T05:02:45.825Z,54.38
2018-06-02T05:05:13.334Z,54.69
2018-06-02T05:07:40.878Z,55.87
2018-06-02T05:10:08.392Z,54.68
2018-06-02T05:12:35.912Z,54.38
2018-06-02T05:15:03.437Z,53.62
2018-06-02T05:17:30.973Z,53.78
2018-06-02T05:19:58.474Z,54.81
2018-06-02T05:22:26.195Z,54.95
2018-06-02T05:24:53.713Z,54.72
2018-06-02T05:27:21.227Z,54.46
2018-06-02T05:29:48.734Z,53.75
2018-06-02T05:32:16.653Z,53.68
2018-06-02T05:34:44.161Z,53.11
2018-06-02T05:37:11.669Z,52.81
2018-06-02T05:39:39.230Z,53.06
2018-06-02T05:42:06.857Z,52.74
2018-06-02T05:44:34.411Z,52.18
2018-06-02T05:47:01.926Z,52.40
2018-06-02T05:49:29.443Z,52.69
2018-06-02T05:51:56.983Z,52.35
2018-06-02T05:54:24.491Z,51.96
2018-06-02T05:56:51.994Z,51.24
2018-06-02T05:59:19.541Z,50.95
2018-06-02T06:01:47.073Z,50.30
2018-06-02T06:04:14.593Z,49.98
2018-06-02T06:06:42.135Z,50.18
2018-06-02T06:09:09.646Z,50.05
2018-06-02T06:11:37.144Z,49.90
2018-06-02T06:14:04.693Z,50.08
2018-06-02T06:16:32.270Z,50.09
2018-06-02T06:18:59.782Z,50.47
2018-06-02T06:21:27.292Z,50.06
2018-06-02T06:23:54.823Z,49.91
2018-06-02T06:26:22.337Z,49.16
2018-06-02T06:28:49.887Z,49.83
2018-06-02T06:31:17.451Z,50.21
2018-06-02T06:33:44.967Z,49.43
2018-06-02T06:36:12.488Z,48.85
2018-06-02T06:38:40.024Z,49.35
2018-06-02T06:41:07.619Z,48.85
2018-06-02T06:43:35.127Z,49.36
2018-06-02T06:46:03.478Z,47.92
2018-06-02T06:48:30.971Z,48.43
2018-06-02T06:50:58.507Z,47.67
2018-06-02T06:53:26.057Z,47.34
2018-06-02T06:55:53.572Z,47.70
2018-06-02T06:58:21.076Z,48.43
2018-06-02T07:00:48.635Z,47.71
2018-06-02T07:03:16.175Z,47.66
2018-06-02T07:05:43.727Z,47.19
2018-06-02T07:08:11.248Z,46.33
2018-06-02T07:10:38.766Z,46.43
2018-06-02T07:13:06.275Z,46.69
2018-06-02T07:15:33.789Z,46.58
2018-06-02T07:18:01.309Z,46.38
2018-06-02T07:20:28.839Z,46.51
2018-06-02T07:22:56.343Z,46.20
2018-06-02T07:25:23.856Z,47.07
2018-06-02T07:27:51.368Z,45.59
2018-06-02T07:30:19.726Z,45.25
2018-06-02T07:32:47.264Z,46.07
2018-06-02T07:35:14.768Z,45.59
2018-06-02T07:37:42.260Z,45.16
2018-06-02T07:40:09.902Z,45.18
2018-06-02T07:42:37.521Z,45.54
2018-06-02T07:45:05.103Z,44.69
2018-06-02T07:47:32.619Z,44.20
2018-06-02T07:50:00.173Z,44.61
2018-06-02T07:52:27.654Z,44.28
2018-06-02T07:54:55.159Z,43.56
2018-06-02T07:57:22.688Z,43.88
2018-06-02T07:59:50.202Z,44.59
2018-06-02T08:02:17.748Z,44.51
2018-06-02T08:04:46.261Z,43.64
2018-06-02T08:07:13.817Z,44.01
2018-06-02T08:09:41.359Z,43.41
2018-06-02T08:12:09.071Z,43.52
2018-06-02T08:14:36.626Z,42.62
2018-06-02T08:17:04.142Z,42.48
2018-06-02T08:19:31.661Z,42.29
2018-06-02T08:21:59.165Z,41.76
2018-06-02T08:24:26.688Z,41.38
2018-06-02T08:26:54.189Z,41.03
2018-06-02T08:29:21.701Z,41.60
2018-06-02T08:31:49.228Z,41.17
2018-06-02T08:34:17.702Z,40.45
2018-06-02T08:36:45.215Z,40.89
2018-06-02T08:39:12.734Z,41.15
2018-06-02T08:41:40.244Z,39.85
2018-06-02T08:44:07.761Z,40.18
2018-06-02T08:46:35.304Z,38.90
2018-06-02T08:49:02.847Z,38.89
2018-06-02T08:51:30.418Z,38.86
2018-06-02T08:53:58.096Z,38.00
2018-06-02T08:56:25.592Z,38.41
2018-06-02T08:58:53.127Z,39.02
2018-06-02T09:01:20.625Z,39.29
2018-06-02T09:03:48.124Z,38.67
2018-06-02T09:06:15.656Z,38.10
2018-06-02T09:08:43.230Z,36.92
2018-06-02T09:11:10.799Z,37.20
2018-06-02T09:13:38.304Z,36.55
2018-06-02T09:16:05.811Z,37.29
2018-06-02T09:18:33.318Z,35.61
2018-06-02T09:21:00.827Z,35.37
2018-06-02T09:23:28.424Z,35.45
2018-06-02T09:25:55.936Z,35.50
2018-06-02T09:28:23.489Z,36.43
2018-06-02T09:30:51.039Z,35.87
2018-06-02T09:33:18.539Z,36.50
2018-06-02T09:35:46.064Z,35.35
2018-06-02T09:38:13.620Z,35.49
2018-06-02T09:40:42.343Z,34.11
2018-06-02T09:43:09.846Z,34.81
2018-06-02T09:45:37.351Z,34.25
2018-06-02T09:48:04.931Z,34.26
2018-06-02T09:50:32.444Z,33.16
2018-06-02T09:52:59.982Z,33.94
2018-06-02T09:55:27.493Z,32.78
2018-06-02T09:57:55.050Z,32.42
2018-06-02T10:00:22.643Z,32.73
2018-06-02T10:02:50.207Z,31.60
2018-06-02T10:05:17.704Z,30.67
2018-06-02T10:07:45.216Z,31.22
2018-06-02T10:10:12.728Z,30.87
2018-06-02T10:12:40.239Z,30.26
2018-06-02T10:15:07.747Z,29.92
2018-06-02T10:17:35.639Z,30.04
2018-06-02T10:20:03.173Z,30.39
2018-06-02T10:22:30.677Z,30.24
2018-06-02T10:24:58.210Z,29.50
2018-06-02T10:27:25.718Z,28.02
2018-06-02T10:29:53.243Z,28.92
2018-06-02T10:32:20.779Z,29.50
2018-06-02T10:34:48.367Z,29.09
2018-06-02T10:37:15.941Z,29.34
2018-06-02T10:39:43.448Z,28.64
2018-06-02T10:42:10.949Z,29.38
2018-06-02T10:44:38.576Z,30.64
2018-06-02T10:47:06.047Z,30.29
2018-06-02T10:49:33.566Z,30.03
2018-06-02T10:52:01.075Z,29.72
2018-06-02T10:54:29.477Z,30.08
2018-06-02T10:56:56.983Z,29.62
2018-06-02T10:59:24.533Z,28.54
2018-06-02T11:01:52.055Z,28.62
2018-06-02T11:04:19.583Z,28.50
2018-06-02T11:06:47.086Z,28.05
2018-06-02T11:09:14.599Z,28.15
2018-06-02T11:11:42.144Z,27.60
2018-06-02T11:14:09.648Z,26.70
2018-06-02T11:16:38.620Z,25.93
2018-06-02T11:19:06.164Z,25.82
2018-06-02T11:21:33.880Z,25.26
2018-06-02T11:24:01.394Z,25.15
2018-06-02T11:26:28.933Z,24.68
2018-06-02T11:28:56.435Z,24.85
2018-06-02T11:31:23.957Z,23.58
2018-06-02T11:33:52.534Z,23.77
2018-06-02T11:36:20.048Z,22.42
2018-06-02T11:38:47.662Z,23.22
2018-06-02T11:41:15.206Z,23.64
2018-06-02T11:43:42.725Z,23.93
2018-06-02T11:46:10.252Z,23.32
2018-06-02T11:48:37.754Z,23.27
2018-06-02T11:51:05.271Z,23.27
2018-06-02T11:53:32.838Z,23.05
2018-06-02T11:56:01.787Z,23.78
2018-06-02T11:58:29.296Z,22.34
2018-06-02T12:00:56.813Z,22.71
2018-06-02T12:03:24.383Z,22.94
2018-06-02T12:05:51.914Z,23.30
2018-06-02T12:08:19.434Z,23.66
2018-06-02T12:10:46.979Z,23.36
2018-06-02T12:13:16.470Z,23.88
2018-06-02T12:15:43.968Z,24.49
2018-06-02T12:18:11.537Z,25.37
2018-06-02T12:20:39.086Z,24.23
2018-06-02T12:23:06.681Z,24.41
2018-06-02T12:25:34.224Z,24.11
2018-06-02T12:28:01.740Z,23.38
2018-06-02T12:30:29.248Z,22.94
2018-06-02T12:32:56.783Z,23.13
2018-06-02T12:35:24.298Z,23.14
2018-06-02T12:37:51.860Z,23.18
2018-06-02T12:40:19.408Z,21.98
2018-06-02T12:42:47.921Z,22.21
2018-06-02T12:45:15.442Z,21.80
2018-06-02T12:47:42.979Z,21.90
2018-06-02T12:50:10.497Z,21.63
2018-06-02T12:52:38.204Z,21.34
2018-06-02T12:55:05.706Z,21.37
2018-06-02T12:57:33.246Z,21.56
2018-06-02T13:00:00.773Z,21.57
2018-06-02T13:02:28.272Z,22.10
2018-06-02T13:04:55.773Z,23.00
2018-06-02T13:07:23.281Z,23.28
2018-06-02T13:09:50.792Z,23.73
2018-06-02T13:12:18.307Z,24.81
2018-06-02T13:14:45.824Z,25.15
2018-06-02T13:17:13.320Z,25.94
2018-06-02T13:19:44.854Z,26.21
2018-06-02T13:22:13.000Z,26.56
2018-06-02T13:24:46.396Z,27.46
2018-06-02T13:27:13.951Z,28.69
2018-06-02T13:29:41.496Z,29.44
2018-06-02T13:32:09.056Z,30.01
2018-06-02T13:34:36.619Z,30.72
2018-06-02T13:37:04.178Z,30.44
2018-06-02T13:39:31.735Z,30.61
2018-06-02T13:41:59.251Z,30.71
2018-06-02T13:44:26.766Z,31.27
2018-06-02T13:46:54.283Z,31.55
2018-06-02T13:49:21.828Z,31.77
2018-06-02T13:51:49.368Z,33.61
2018-06-02T13:54:16.923Z,33.71
2018-06-02T13:56:44.442Z,33.45
2018-06-02T13:59:12.515Z,32.28
2018-06-02T14:01:40.033Z,32.67
2018-06-02T14:04:07.593Z,33.45
2018-06-02T14:06:35.099Z,32.93
2018-06-02T14:09:02.628Z,31.77
2018-06-02T14:11:30.122Z,31.67
2018-06-02T14:13:59.035Z,31.03
2018-06-02T14:16:26.544Z,29.38
2018-06-02T14:18:54.110Z,30.28
2018-06-02T14:21:21.675Z,29.78
2018-06-02T14:23:49.176Z,30.77
2018-06-02T14:26:16.748Z,31.15
2018-06-02T14:28:44.241Z,32.57
2018-06-02T14:31:12.678Z,33.64
2018-06-02T14:33:41.099Z,34.18
2018-06-02T14:36:08.605Z,34.46
2018-06-02T14:38:36.123Z,35.48
2018-06-02T14:41:03.636Z,36.14
2018-06-02T14:43:31.165Z,36.28
2018-06-02T14:45:58.670Z,36.81
2018-06-02T14:48:26.176Z,37.13
2018-06-02T14:50:53.691Z,37.18
2018-06-02T14:53:22.019Z,37.14
2018-06-02T14:55:51.324Z,37.35
2018-06-02T14:58:23.711Z,37.30
2018-06-02T15:00:51.245Z,37.02
2018-06-02T15:03:18.773Z,36.97
2018-06-02T15:05:46.278Z,36.98
2018-06-02T15:08:13.811Z,37.07
2018-06-02T15:10:50.768Z,37.67
2018-06-02T15:13:18.283Z,37.77
2018-06-02T15:15:47.566Z,38.29
2018-06-02T15:18:15.096Z,38.86
2018-06-02T15:20:44.894Z,39.62
2018-06-02T15:23:12.425Z,40.74
2018-06-02T15:25:39.939Z,41.18
2018-06-02T15:30:44.424Z,42.10
2018-06-02T15:33:14.778Z,41.96
2018-06-02T15:35:43.334Z,42.46
2018-06-02T15:38:11.406Z,42.25
2018-06-02T15:40:40.435Z,43.25
2018-06-02T15:43:08.732Z,43.20
2018-06-02T15:45:37.926Z,43.35
2018-06-02T15:48:06.268Z,43.28
2018-06-02T15:50:33.761Z,45.40
2018-06-02T15:53:04.163Z,46.56
2018-06-02T15:55:32.490Z,48.24
2018-06-02T15:58:01.635Z,51.68
2018-06-02T16:00:29.192Z,54.33
2018-06-02T16:02:58.582Z,56.26
2018-06-02T16:05:26.082Z,57.29
2018-06-02T16:07:53.592Z,57.06
2018-06-02T16:10:21.640Z,56.78
2018-06-02T16:12:52.372Z,57.10
2018-06-02T16:15:19.886Z,56.22
2018-06-02T16:17:47.384Z,55.94
2018-06-02T16:20:14.891Z,54.43
2018-06-02T16:22:45.933Z,54.68
2018-06-02T16:25:14.335Z,53.42
2018-06-02T16:27:41.837Z,54.06
2018-06-02T16:30:10.641Z,52.42
2018-06-02T16:32:38.933Z,52.96
2018-06-02T16:35:07.343Z,52.15
2018-06-02T16:37:34.868Z,52.24
2018-06-02T16:40:06.506Z,52.00
2018-06-02T16:42:34.025Z,50.15
2018-06-02T16:45:01.552Z,49.82
2018-06-02T16:47:29.058Z,50.01
2018-06-02T16:49:57.545Z,49.32
2018-06-02T16:52:25.056Z,49.74
2018-06-02T16:54:52.571Z,50.13
2018-06-02T16:57:20.139Z,49.44
2018-06-02T16:59:47.766Z,50.07
2018-06-02T17:02:15.294Z,51.46
2018-06-02T17:04:42.804Z,52.08
2018-06-02T17:07:10.309Z,51.97
2018-06-02T17:09:37.820Z,52.51
2018-06-02T17:12:06.422Z,52.44
2018-06-02T17:14:34.996Z,52.33
2018-06-02T17:17:03.642Z,51.77
2018-06-02T17:19:31.143Z,52.60
2018-06-02T17:21:58.682Z,51.74
2018-06-02T17:24:27.595Z,50.62
2018-06-02T17:26:55.219Z,51.84
2018-06-02T17:29:23.319Z,51.76
2018-06-02T17:31:51.942Z,50.53
2018-06-02T17:34:19.448Z,51.32
2018-06-02T17:36:46.963Z,51.68
2018-06-02T17:39:14.459Z,52.34
2018-06-02T17:41:41.946Z,52.42
2018-06-02T17:44:09.562Z,51.07
2018-06-02T17:46:37.166Z,51.77
2018-06-02T17:49:04.676Z,52.88
2018-06-02T17:51:32.201Z,52.06
2018-06-02T17:53:59.763Z,50.66
2018-06-02T17:56:27.261Z,50.83
2018-06-02T17:58:54.769Z,50.86
2018-06-02T18:01:22.332Z,51.24
2018-06-02T18:03:49.874Z,52.24
2018-06-02T18:06:17.388Z,51.19
2018-06-02T18:08:44.997Z,51.74
2018-06-02T18:11:12.534Z,52.01
2018-06-02T18:13:40.788Z,52.25
2018-06-02T18:16:08.323Z,52.82
2018-06-02T18:18:36.050Z,52.69
2018-06-02T18:21:03.562Z,52.66
2018-06-02T18:23:31.127Z,52.51
2018-06-02T18:25:58.628Z,52.38
2018-06-02T18:28:26.208Z,52.79
2018-06-02T18:30:53.717Z,53.48
2018-06-02T18:33:21.967Z,53.33
2018-06-02T18:35:49.501Z,53.37
2018-06-02T18:38:17.031Z,53.29
2018-06-02T18:40:44.562Z,53.65
2018-06-02T18:43:12.075Z,53.69
2018-06-02T18:45:39.593Z,53.76
2018-06-02T18:48:07.119Z,54.26
2018-06-02T18:50:34.627Z,54.26
2018-06-02T18:53:02.148Z,54.40
2018-06-02T18:55:29.665Z,54.52
2018-06-02T18:57:57.172Z,54.60
2018-06-02T19:00:24.706Z,55.21
2018-06-02T19:02:52.239Z,56.83
2018-06-02T19:05:19.757Z,57.44
2018-06-02T19:07:47.263Z,58.18
2018-06-02T19:10:15.504Z,58.80
2018-06-02T19:12:43.044Z,60.88
2018-06-02T19:15:11.492Z,62.23
2018-06-02T19:17:39.010Z,63.48
2018-06-02T19:20:06.564Z,64.02
2018-06-02T19:22:34.062Z,64.48
2018-06-02T19:25:01.614Z,64.46
2018-06-02T19:27:29.113Z,64.64
2018-06-02T19:29:56.648Z,65.17
2018-06-02T19:32:24.263Z,65.44
2018-06-02T19:34:51.825Z,65.39
2018-06-02T19:37:19.341Z,65.28
2018-06-02T19:39:46.892Z,65.60
2018-06-02T19:42:14.402Z,65.91
2018-06-02T19:44:41.954Z,65.05
2018-06-02T19:47:09.473Z,65.00
2018-06-02T19:49:36.974Z,65.35
2018-06-02T19:52:04.541Z,65.10
2018-06-02T19:54:32.055Z,64.99
2018-06-02T19:56:59.559Z,65.07
2018-06-02T19:59:27.065Z,64.46
2018-06-02T20:01:54.601Z,64.20
2018-06-02T20:04:22.104Z,64.07
2018-06-02T20:06:49.595Z,64.13
2018-06-02T20:09:17.627Z,63.92
2018-06-02T20:11:47.037Z,64.09
2018-06-02T20:14:14.735Z,64.37
2018-06-02T20:16:42.255Z,64.46
2018-06-02T20:19:09.766Z,64.30
2018-06-02T20:21:37.866Z,64.25
2018-06-02T20:24:05.368Z,64.47
2018-06-02T20:26:32.906Z,64.07
2018-06-02T20:29:00.411Z,64.21
2018-06-02T20:31:27.944Z,64.57
2018-06-02T20:33:55.447Z,64.79
2018-06-02T20:36:25.851Z,64.57
2018-06-02T20:38:53.346Z,64.51
2018-06-02T20:41:20.867Z,64.59
2018-06-02T20:43:48.379Z,64.79
2018-06-02T20:46:15.941Z,64.68
2018-06-02T20:48:44.184Z,64.77
2018-06-02T20:51:11.692Z,64.94
2018-06-02T20:53:39.203Z,64.96
2018-06-02T20:56:06.707Z,64.68
2018-06-02T20:58:34.225Z,64.80
2018-06-02T21:01:01.749Z,64.94
2018-06-02T21:03:29.261Z,64.84
2018-06-02T21:05:57.072Z,64.87
2018-06-02T21:08:24.621Z,64.72
2018-06-02T21:10:53.775Z,64.92
2018-06-02T21:13:21.461Z,64.88
2018-06-02T21:15:49.331Z,65.09
2018-06-02T21:18:16.867Z,65.19
2018-06-02T21:20:44.385Z,65.08
2018-06-02T21:23:11.914Z,65.02
2018-06-02T21:25:39.442Z,65.02
2018-06-02T21:28:06.976Z,64.93
2018-06-02T21:30:34.549Z,64.81
2018-06-02T21:33:02.095Z,64.95
2018-06-02T21:35:29.624Z,64.67
2018-06-02T21:37:57.946Z,65.39
2018-06-02T21:40:25.484Z,65.51
2018-06-02T21:42:53.003Z,65.36
2018-06-02T21:45:20.691Z,65.29
2018-06-02T21:47:48.234Z,65.31
2018-06-02T21:50:15.761Z,65.32
2018-06-02T21:52:43.298Z,64.83
2018-06-02T21:55:10.875Z,65.63
2018-06-02T21:57:38.517Z,65.93
2018-06-02T22:00:06.078Z,65.96
2018-06-02T22:02:33.613Z,66.17
2018-06-02T22:05:01.155Z,66.45
2018-06-02T22:07:28.693Z,66.55
2018-06-02T22:09:56.265Z,66.53
2018-06-02T22:12:24.839Z,66.47
2018-06-02T22:14:52.481Z,66.63
2018-06-02T22:17:20.094Z,66.52
2018-06-02T22:19:47.620Z,66.64
2018-06-02T22:22:15.238Z,66.30
2018-06-02T22:24:42.790Z,66.37
2018-06-02T22:27:10.325Z,67.13
2018-06-02T22:29:37.936Z,66.77
2018-06-02T22:32:05.473Z,66.68
2018-06-02T22:34:34.454Z,67.36
2018-06-02T22:37:02.024Z,67.91
2018-06-02T22:39:29.632Z,67.57
2018-06-02T22:41:57.181Z,67.42
2018-06-02T22:44:25.409Z,67.98
2018-06-02T22:46:52.949Z,68.15
2018-06-02T22:49:21.423Z,68.05
2018-06-02T22:51:58.850Z,68.00
2018-06-02T22:54:26.454Z,67.99
2018-06-02T22:56:54.035Z,67.93
2018-06-02T22:59:21.581Z,67.68
2018-06-02T23:01:50.062Z,67.62
2018-06-02T23:04:17.607Z,68.21
2018-06-02T23:06:46.239Z,68.18
2018-06-02T23:09:13.788Z,68.27
2018-06-02T23:11:41.444Z,68.17
2018-06-02T23:14:08.978Z,68.54
2018-06-02T23:16:36.575Z,68.08
2018-06-02T23:19:04.106Z,68.06
2018-06-02T23:21:31.800Z,67.77
2018-06-02T23:23:59.355Z,68.10
2018-06-02T23:26:26.883Z,68.22
2018-06-02T23:28:54.497Z,68.65
2018-06-02T23:31:22.026Z,68.72
2018-06-02T23:33:51.424Z,69.12
2018-06-02T23:36:20.573Z,69.23
2018-06-02T23:38:48.139Z,69.45
2018-06-02T23:41:16.833Z,69.71
2018-06-02T23:43:44.394Z,69.96
2018-06-02T23:46:11.918Z,69.88
2018-06-02T23:48:39.458Z,70.32
2018-06-02T23:51:06.992Z,70.54
2018-06-02T23:53:34.522Z,70.79
2018-06-02T23:56:02.079Z,70.91
2018-06-02T23:58:29.643Z,70.94
